createdAt,value
2018-08-04T00:00:56.622Z,6.80
2018-08-04T00:03:25.738Z,7.10
2018-08-04T00:05:54.951Z,6.50
2018-08-04T00:08:24.010Z,6.47
2018-08-04T00:10:53.080Z,5.80
2018-08-04T00:13:22.121Z,5.93
2018-08-04T00:15:51.203Z,7.07
2018-08-04T00:18:20.251Z,6.30
2018-08-04T00:20:49.068Z,7.20
2018-08-04T00:23:17.995Z,6.50
2018-08-04T00:25:47.059Z,5.83
2018-08-04T00:28:16.189Z,6.37
2018-08-04T00:30:45.266Z,7.33
2018-08-04T00:33:14.312Z,8.13
2018-08-04T00:35:43.126Z,8.17
2018-08-04T00:38:12.080Z,6.40
2018-08-04T00:40:41.139Z,7.17
2018-08-04T00:43:10.191Z,6.80
2018-08-04T00:45:39.006Z,6.57
2018-08-04T00:48:07.675Z,6.00
2018-08-04T00:50:36.647Z,6.30
2018-08-04T00:53:06.175Z,6.00
2018-08-04T00:55:34.975Z,5.83
2018-08-04T00:58:03.944Z,6.37
2018-08-04T01:00:32.987Z,6.50
2018-08-04T01:03:02.059Z,8.30
2018-08-04T01:05:31.125Z,7.03
2018-08-04T01:08:00.183Z,6.90
2018-08-04T01:10:29.226Z,6.77
2018-08-04T01:12:58.291Z,7.00
2018-08-04T01:15:27.350Z,7.53
2018-08-04T01:17:56.416Z,7.30
2018-08-04T01:20:25.246Z,7.77
2018-08-04T01:22:54.192Z,7.83
2018-08-04T01:25:23.236Z,7.67
2018-08-04T01:27:52.395Z,10.03
2018-08-04T01:30:21.456Z,7.03
2018-08-04T01:32:50.588Z,9.20
2018-08-04T01:35:19.383Z,8.63
2018-08-04T01:37:48.425Z,7.00
2018-08-04T01:40:17.475Z,7.37
2018-08-04T01:42:46.290Z,7.67
2018-08-04T01:45:14.966Z,7.70
2018-08-04T01:47:43.651Z,7.47
2018-08-04T01:50:12.336Z,7.83
2018-08-04T01:52:41.279Z,7.50
2018-08-04T01:55:10.523Z,9.33
2018-08-04T01:57:39.579Z,7.30
2018-08-04T02:00:08.844Z,6.67
2018-08-04T02:02:37.924Z,7.50
2018-08-04T02:05:07.000Z,9.13
2018-08-04T02:07:36.083Z,7.30
2018-08-04T02:10:05.292Z,10.03
2018-08-04T02:12:34.102Z,7.83
2018-08-04T02:15:03.020Z,7.87
2018-08-04T02:17:32.079Z,6.87
2018-08-04T02:20:00.866Z,6.73
2018-08-04T02:22:29.815Z,8.27
2018-08-04T02:24:58.918Z,7.60
2018-08-04T02:27:28.104Z,8.13
2018-08-04T02:29:57.208Z,8.13
2018-08-04T02:32:26.275Z,7.30
2018-08-04T02:34:55.344Z,8.13
2018-08-04T02:37:24.138Z,7.50
2018-08-04T02:39:53.307Z,7.07
2018-08-04T02:42:22.368Z,8.33
2018-08-04T02:44:51.452Z,7.30
2018-08-04T02:47:20.512Z,9.73
2018-08-04T02:49:49.630Z,7.33
2018-08-04T02:52:18.737Z,7.27
2018-08-04T02:54:47.812Z,7.60
2018-08-04T02:57:16.862Z,7.33
2018-08-04T02:59:45.924Z,7.60
2018-08-04T03:02:14.987Z,7.33
2018-08-04T03:04:44.105Z,7.43
2018-08-04T03:07:13.453Z,7.60
2018-08-04T03:09:42.536Z,7.27
2018-08-04T03:12:11.577Z,7.67
2018-08-04T03:14:40.640Z,8.60
2018-08-04T03:17:09.684Z,7.57
2018-08-04T03:19:38.494Z,7.90
2018-08-04T03:22:07.419Z,7.77
2018-08-04T03:24:36.621Z,10.30
2018-08-04T03:27:05.880Z,8.63
2018-08-04T03:29:34.943Z,8.13
2018-08-04T03:32:03.996Z,7.60
2018-08-04T03:34:33.064Z,7.57
2018-08-04T03:37:02.124Z,8.77
2018-08-04T03:39:31.208Z,9.07
2018-08-04T03:42:00.246Z,9.10
2018-08-04T03:44:29.333Z,9.03
2018-08-04T03:46:58.135Z,8.83
2018-08-04T03:49:27.112Z,10.20
2018-08-04T03:51:55.927Z,10.97
2018-08-04T03:54:24.624Z,11.70
2018-08-04T03:56:53.315Z,10.20
2018-08-04T03:59:21.986Z,10.10
2018-08-04T04:01:50.940Z,9.60
2018-08-04T04:04:19.991Z,9.90
2018-08-04T04:06:49.062Z,10.73
2018-08-04T04:09:18.116Z,10.50
2018-08-04T04:11:47.188Z,9.83
2018-08-04T04:14:16.235Z,9.97
2018-08-04T04:16:45.291Z,9.77
2018-08-04T04:19:14.347Z,10.07
2018-08-04T04:21:43.442Z,9.20
2018-08-04T04:24:12.495Z,9.27
2018-08-04T04:26:41.563Z,10.27
2018-08-04T04:29:10.607Z,9.97
2018-08-04T04:31:39.682Z,9.33
2018-08-04T04:34:08.779Z,9.17
2018-08-04T04:36:37.835Z,9.10
2018-08-04T04:39:08.362Z,9.03
2018-08-04T04:41:37.596Z,11.07
2018-08-04T04:44:06.768Z,9.00
2018-08-04T04:46:37.840Z,9.37
2018-08-04T04:49:08.752Z,9.97
2018-08-04T04:51:38.075Z,8.50
2018-08-04T04:54:07.116Z,8.83
2018-08-04T04:56:35.918Z,7.90
2018-08-04T04:59:05.140Z,8.70
2018-08-04T05:01:34.211Z,8.30
2018-08-04T05:04:03.268Z,8.07
2018-08-04T05:06:32.339Z,8.40
2018-08-04T05:09:01.399Z,11.27
2018-08-04T05:11:30.472Z,8.33
2018-08-04T05:13:59.520Z,8.10
2018-08-04T05:16:28.597Z,8.00
2018-08-04T05:18:57.652Z,7.90
2018-08-04T05:21:26.750Z,7.77
2018-08-04T05:23:55.791Z,8.10
2018-08-04T05:26:24.863Z,7.90
2018-08-04T05:28:53.908Z,7.87
2018-08-04T05:31:22.994Z,8.17
2018-08-04T05:33:52.600Z,10.27
2018-08-04T05:36:21.666Z,9.13
2018-08-04T05:38:50.488Z,7.57
2018-08-04T05:41:19.468Z,7.53
2018-08-04T05:43:48.259Z,7.80
2018-08-04T05:46:16.948Z,6.80
2018-08-04T05:48:45.895Z,9.80
2018-08-04T05:51:14.967Z,6.93
2018-08-04T05:53:44.031Z,9.57
2018-08-04T05:56:13.083Z,7.03
2018-08-04T05:58:42.151Z,8.07
2018-08-04T06:01:11.204Z,6.63
2018-08-04T06:03:40.051Z,6.00
2018-08-04T06:06:09.106Z,6.30
2018-08-04T06:08:38.337Z,7.00
2018-08-04T06:11:07.387Z,7.53
2018-08-04T06:13:36.455Z,6.63
2018-08-04T06:16:05.523Z,7.60
2018-08-04T06:18:34.599Z,5.70
2018-08-04T06:21:04.699Z,8.40
2018-08-04T06:23:33.774Z,8.40
2018-08-04T06:26:02.832Z,6.43
2018-08-04T06:28:31.924Z,10.03
2018-08-04T06:31:00.976Z,7.87
2018-08-04T06:33:30.044Z,6.37
2018-08-04T06:35:59.108Z,7.10
2018-08-04T06:38:28.416Z,6.30
2018-08-04T06:40:57.471Z,6.13
2018-08-04T06:43:26.545Z,8.83
2018-08-04T06:45:55.591Z,6.60
2018-08-04T06:48:24.659Z,5.83
2018-08-04T06:50:53.912Z,7.87
2018-08-04T06:53:22.988Z,7.53
2018-08-04T06:55:52.052Z,6.30
2018-08-04T06:58:21.180Z,7.03
2018-08-04T07:00:50.223Z,6.63
2018-08-04T07:03:19.299Z,6.33
2018-08-04T07:05:48.372Z,8.33
2018-08-04T07:08:17.447Z,6.40
2018-08-04T07:10:46.539Z,7.00
2018-08-04T07:13:15.601Z,6.63
2018-08-04T07:15:44.679Z,7.13
2018-08-04T07:18:13.734Z,6.47
2018-08-04T07:20:42.872Z,6.40
2018-08-04T07:23:11.927Z,6.67
2018-08-04T07:25:41.003Z,6.57
2018-08-04T07:28:10.487Z,6.30
2018-08-04T07:30:39.449Z,7.10
2018-08-04T07:33:08.524Z,6.67
2018-08-04T07:35:37.599Z,6.57
2018-08-04T07:38:06.655Z,8.27
2018-08-04T07:40:35.753Z,7.63
2018-08-04T07:43:05.156Z,6.90
2018-08-04T07:45:34.230Z,7.40
2018-08-04T07:48:03.290Z,7.80
2018-08-04T07:50:32.122Z,6.37
2018-08-04T07:53:01.043Z,5.43
2018-08-04T07:55:30.108Z,6.20
2018-08-04T07:57:59.163Z,8.57
2018-08-04T08:00:28.232Z,6.27
2018-08-04T08:02:57.336Z,7.30
2018-08-04T08:05:26.198Z,6.27
2018-08-04T08:07:55.119Z,9.53
2018-08-04T08:10:24.245Z,6.28
2018-08-04T08:12:53.357Z,9.70
2018-08-04T08:15:22.432Z,7.22
2018-08-04T08:17:51.484Z,6.62
2018-08-04T08:20:20.564Z,6.60
2018-08-04T08:22:49.608Z,9.28
2018-08-04T08:25:18.436Z,7.45
2018-08-04T08:27:47.360Z,7.92
2018-08-04T08:30:16.427Z,6.92
2018-08-04T08:32:45.523Z,8.45
2018-08-04T08:35:14.571Z,7.58
2018-08-04T08:37:43.631Z,7.33
2018-08-04T08:40:12.731Z,7.37
2018-08-04T08:42:41.792Z,7.50
2018-08-04T08:45:11.105Z,9.50
2018-08-04T08:47:40.178Z,8.05
2018-08-04T08:50:11.240Z,8.08
2018-08-04T08:52:40.391Z,7.42
2018-08-04T08:55:09.737Z,7.62
2018-08-04T08:57:38.801Z,7.28
2018-08-04T09:00:08.579Z,8.83
2018-08-04T09:02:37.763Z,7.92
2018-08-04T09:05:07.453Z,8.30
2018-08-04T09:07:36.619Z,8.43
2018-08-04T09:10:06.773Z,10.25
2018-08-04T09:12:35.720Z,11.20
2018-08-04T09:15:05.044Z,7.85
2018-08-04T09:17:34.105Z,8.53
2018-08-04T09:20:03.160Z,7.60
2018-08-04T09:22:32.223Z,11.65
2018-08-04T09:25:01.011Z,8.53
2018-08-04T09:27:29.951Z,8.50
2018-08-04T09:29:59.004Z,8.23
2018-08-04T09:32:27.829Z,10.03
2018-08-04T09:34:56.751Z,9.85
2018-08-04T09:37:25.823Z,12.18
2018-08-04T09:39:55.226Z,8.10
2018-08-04T09:42:24.302Z,10.23
2018-08-04T09:44:53.347Z,8.60
2018-08-04T09:47:22.171Z,8.58
2018-08-04T09:49:51.091Z,7.45
2018-08-04T09:52:20.199Z,13.75
2018-08-04T09:54:49.255Z,8.83
2018-08-04T09:57:18.331Z,8.88
2018-08-04T09:59:47.388Z,9.70
2018-08-04T10:02:20.691Z,9.00
2018-08-04T10:04:49.752Z,12.00
2018-08-04T10:07:18.829Z,8.45
2018-08-04T10:09:47.642Z,11.08
2018-08-04T10:12:16.342Z,9.20
2018-08-04T10:14:45.271Z,8.88
2018-08-04T10:17:14.664Z,8.60
2018-08-04T10:19:43.804Z,15.00
2018-08-04T10:22:13.163Z,9.85
2018-08-04T10:24:42.120Z,8.23
2018-08-04T10:27:11.188Z,8.40
2018-08-04T10:29:40.264Z,9.40
2018-08-04T10:32:09.515Z,9.00
2018-08-04T10:34:38.453Z,8.38
2018-08-04T10:37:07.520Z,8.55
2018-08-04T10:39:36.598Z,9.30
2018-08-04T10:42:05.899Z,8.75
2018-08-04T10:44:34.976Z,8.03
2018-08-04T10:47:04.029Z,7.87
2018-08-04T10:49:33.135Z,8.15
2018-08-04T10:52:02.204Z,8.05
2018-08-04T10:54:31.284Z,11.20
2018-08-04T10:57:00.389Z,8.73
2018-08-04T10:59:29.190Z,8.03
2018-08-04T11:01:58.114Z,8.18
2018-08-04T11:04:27.191Z,8.50
2018-08-04T11:06:56.258Z,7.40
2018-08-04T11:09:25.327Z,7.60
2018-08-04T11:11:54.428Z,8.53
2018-08-04T11:14:23.516Z,9.05
2018-08-04T11:16:52.588Z,10.38
2018-08-04T11:19:21.675Z,7.87
2018-08-04T11:21:50.753Z,8.40
2018-08-04T11:24:19.831Z,7.47
2018-08-04T11:26:48.895Z,7.87
2018-08-04T11:29:17.975Z,7.65
2018-08-04T11:31:47.065Z,7.67
2018-08-04T11:34:16.147Z,7.30
2018-08-04T11:36:45.323Z,6.72
2018-08-04T11:39:14.403Z,7.08
2018-08-04T11:41:43.459Z,7.72
2018-08-04T11:44:12.545Z,7.40
2018-08-04T11:46:41.610Z,7.40
2018-08-04T11:49:10.707Z,7.20
2018-08-04T11:51:39.832Z,7.30
2018-08-04T11:54:09.052Z,7.20
2018-08-04T11:56:38.123Z,7.35
2018-08-04T11:59:07.173Z,7.35
2018-08-04T12:01:36.047Z,6.35
2018-08-04T12:04:06.307Z,8.33
2018-08-04T12:06:35.532Z,7.15
2018-08-04T12:09:07.884Z,9.25
2018-08-04T12:11:36.950Z,14.03
2018-08-04T12:14:05.766Z,10.93
2018-08-04T12:16:34.729Z,13.30
2018-08-04T12:19:03.784Z,10.63
2018-08-04T12:21:32.856Z,7.55
2018-08-04T12:24:02.608Z,8.10
2018-08-04T12:26:31.676Z,9.70
2018-08-04T12:29:00.740Z,7.22
2018-08-04T12:31:29.832Z,8.55
2018-08-04T12:33:59.007Z,8.48
2018-08-04T12:36:28.071Z,7.65
2018-08-04T12:38:57.115Z,6.78
2018-08-04T12:41:26.015Z,7.28
2018-08-04T12:43:54.938Z,6.85
2018-08-04T12:46:24.028Z,6.87
2018-08-04T12:48:53.102Z,6.28
2018-08-04T12:51:22.051Z,7.55
2018-08-04T12:53:50.987Z,6.60
2018-08-04T12:56:19.807Z,7.50
2018-08-04T12:58:48.739Z,6.87
2018-08-04T13:01:17.815Z,6.65
2018-08-04T13:03:46.875Z,6.97
2018-08-04T13:06:15.962Z,7.08
2018-08-04T13:08:45.032Z,7.90
2018-08-04T13:11:14.140Z,6.83
2018-08-04T13:13:42.935Z,6.90
2018-08-04T13:16:11.899Z,7.42
2018-08-04T13:18:40.954Z,6.95
2018-08-04T13:21:10.037Z,7.00
2018-08-04T13:23:39.092Z,6.83
2018-08-04T13:26:08.181Z,6.37
2018-08-04T13:28:37.254Z,6.35
2018-08-04T13:31:06.316Z,6.78
2018-08-04T13:33:35.174Z,6.47
2018-08-04T13:36:04.099Z,5.65
2018-08-04T13:38:33.181Z,5.70
2018-08-04T13:41:02.264Z,7.58
2018-08-04T13:43:31.519Z,5.35
2018-08-04T13:46:00.556Z,5.40
2018-08-04T13:48:29.637Z,4.78
2018-08-04T13:50:58.454Z,4.90
2018-08-04T13:53:27.421Z,5.90
2018-08-04T13:55:56.471Z,5.45
2018-08-04T13:58:25.654Z,5.42
2018-08-04T14:00:54.744Z,5.92
2018-08-04T14:03:23.819Z,6.03
2018-08-04T14:05:52.900Z,5.80
2018-08-04T14:08:21.975Z,6.08
2018-08-04T14:10:51.035Z,6.67
2018-08-04T14:13:19.921Z,5.25
2018-08-04T14:15:48.924Z,5.58
2018-08-04T14:18:17.751Z,6.35
2018-08-04T14:20:46.685Z,5.90
2018-08-04T14:23:15.764Z,6.62
2018-08-04T14:25:44.833Z,6.00
2018-08-04T14:28:14.100Z,6.15
2018-08-04T14:30:43.184Z,5.58
2018-08-04T14:33:12.264Z,6.47
2018-08-04T14:35:41.327Z,5.87
2018-08-04T14:38:10.400Z,5.25
2018-08-04T14:40:39.476Z,5.95
2018-08-04T14:43:08.860Z,5.58
2018-08-04T14:45:37.984Z,6.25
2018-08-04T14:48:10.743Z,5.55
2018-08-04T14:50:39.807Z,5.50
2018-08-04T14:53:08.872Z,5.87
2018-08-04T14:55:37.919Z,5.70
2018-08-04T14:58:07.016Z,5.40
2018-08-04T15:00:36.063Z,5.67
2018-08-04T15:03:05.111Z,6.62
2018-08-04T15:05:34.180Z,5.58
2018-08-04T15:08:03.572Z,5.45
2018-08-04T15:10:32.630Z,5.22
2018-08-04T15:13:01.486Z,4.85
2018-08-04T15:15:30.428Z,4.92
2018-08-04T15:17:59.472Z,5.17
2018-08-04T15:20:28.539Z,6.10
2018-08-04T15:22:57.628Z,4.92
2018-08-04T15:25:26.702Z,5.05
2018-08-04T15:27:55.984Z,4.65
2018-08-04T15:30:24.932Z,5.40
2018-08-04T15:32:53.983Z,4.60
2018-08-04T15:35:23.052Z,4.47
2018-08-04T15:37:52.114Z,5.65
2018-08-04T15:40:26.669Z,4.70
2018-08-04T15:42:55.723Z,6.25
2018-08-04T15:45:24.795Z,4.58
2018-08-04T15:47:53.851Z,4.75
2018-08-04T15:50:22.963Z,5.05
2018-08-04T15:52:51.999Z,4.33
2018-08-04T15:55:21.113Z,4.42
2018-08-04T15:57:50.162Z,4.12
2018-08-04T16:00:19.273Z,4.40
2018-08-04T16:02:48.142Z,4.17
2018-08-04T16:05:17.152Z,5.95
2018-08-04T16:07:46.171Z,4.65
2018-08-04T16:10:15.249Z,4.15
2018-08-04T16:12:44.331Z,4.30
2018-08-04T16:15:13.416Z,4.62
2018-08-04T16:17:42.603Z,5.15
2018-08-04T16:20:13.436Z,4.83
2018-08-04T16:22:42.643Z,4.80
2018-08-04T16:25:11.943Z,5.47
2018-08-04T16:27:41.227Z,4.37
2018-08-04T16:30:10.964Z,4.62
2018-08-04T16:32:40.876Z,4.55
2018-08-04T16:35:10.187Z,4.25
2018-08-04T16:37:39.300Z,4.80
2018-08-04T16:40:08.360Z,4.37
2018-08-04T16:42:37.511Z,4.72
2018-08-04T16:45:06.396Z,4.72
2018-08-04T16:47:35.352Z,4.65
2018-08-04T16:50:04.484Z,5.17
2018-08-04T16:52:33.317Z,4.95
2018-08-04T16:55:02.258Z,4.67
2018-08-04T16:57:31.337Z,4.58
2018-08-04T17:00:00.616Z,4.35
2018-08-04T17:02:29.689Z,5.42
2018-08-04T17:04:58.748Z,4.37
2018-08-04T17:07:27.816Z,4.12
2018-08-04T17:09:56.865Z,4.47
2018-08-04T17:12:26.010Z,4.45
2018-08-04T17:14:55.025Z,4.12
2018-08-04T17:17:24.095Z,6.45
2018-08-04T17:19:53.139Z,4.35
2018-08-04T17:22:22.297Z,4.30
2018-08-04T17:24:51.355Z,8.00
2018-08-04T17:27:20.424Z,5.42
2018-08-04T17:29:49.699Z,4.80
2018-08-04T17:32:18.650Z,4.60
2018-08-04T17:34:47.700Z,4.50
2018-08-04T17:37:16.767Z,5.03
2018-08-04T17:39:45.812Z,4.62
2018-08-04T17:42:14.627Z,4.62
2018-08-04T17:44:43.564Z,4.42
2018-08-04T17:47:12.638Z,7.22
2018-08-04T17:49:41.759Z,4.35
2018-08-04T17:52:10.861Z,4.35
2018-08-04T17:54:39.923Z,4.95
2018-08-04T17:57:09.086Z,4.95
2018-08-04T17:59:38.092Z,4.50
2018-08-04T18:02:07.171Z,4.40
2018-08-04T18:04:35.999Z,5.50
2018-08-04T18:07:05.049Z,4.55
2018-08-04T18:09:33.855Z,4.28
2018-08-04T18:12:02.796Z,4.58
2018-08-04T18:14:31.874Z,4.62
2018-08-04T18:17:00.927Z,4.15
2018-08-04T18:19:29.744Z,5.05
2018-08-04T18:21:58.419Z,4.20
2018-08-04T18:24:27.367Z,4.50
2018-08-04T18:26:56.428Z,5.50
2018-08-04T18:29:25.499Z,4.35
2018-08-04T18:31:54.575Z,4.67
2018-08-04T18:34:23.439Z,4.85
2018-08-04T18:36:52.386Z,4.00
2018-08-04T18:39:21.467Z,4.03
2018-08-04T18:41:50.334Z,4.00
2018-08-04T18:44:19.287Z,4.67
2018-08-04T18:46:48.367Z,4.40
2018-08-04T18:49:17.432Z,4.37
2018-08-04T18:51:46.518Z,4.85
2018-08-04T18:54:15.592Z,4.30
2018-08-04T18:56:44.644Z,9.18
2018-08-04T18:59:13.719Z,4.30
2018-08-04T19:01:42.772Z,4.15
2018-08-04T19:04:11.832Z,4.85
2018-08-04T19:06:40.888Z,4.20
2018-08-04T19:09:11.290Z,4.60
2018-08-04T19:11:40.340Z,4.03
2018-08-04T19:14:09.747Z,3.75
2018-08-04T19:16:38.775Z,4.62
2018-08-04T19:19:07.844Z,4.62
2018-08-04T19:21:36.634Z,4.00
2018-08-04T19:24:05.580Z,4.20
2018-08-04T19:26:34.381Z,4.90
2018-08-04T19:29:03.327Z,3.80
2018-08-04T19:31:32.367Z,6.10
2018-08-04T19:34:01.444Z,4.85
2018-08-04T19:36:30.491Z,4.58
2018-08-04T19:38:59.310Z,4.45
2018-08-04T19:41:28.235Z,4.58
2018-08-04T19:43:57.338Z,4.10
2018-08-04T19:46:26.375Z,4.22
2018-08-04T19:48:55.350Z,4.33
2018-08-04T19:51:24.421Z,5.35
2018-08-04T19:53:53.527Z,4.17
2018-08-04T19:56:22.607Z,4.00
2018-08-04T19:58:51.660Z,4.33
2018-08-04T20:01:20.743Z,4.33
2018-08-04T20:03:49.540Z,4.53
2018-08-04T20:06:18.250Z,5.63
2018-08-04T20:08:47.180Z,4.63
2018-08-04T20:11:16.269Z,4.30
2018-08-04T20:13:45.336Z,5.43
2018-08-04T20:16:14.404Z,4.57
2018-08-04T20:18:43.195Z,4.37
2018-08-04T20:21:12.188Z,4.35
2018-08-04T20:23:40.991Z,4.37
2018-08-04T20:26:09.695Z,4.30
2018-08-04T20:28:38.635Z,4.47
2018-08-04T20:31:07.703Z,4.40
2018-08-04T20:33:36.751Z,5.83
2018-08-04T20:36:06.099Z,9.67
2018-08-04T20:38:35.147Z,4.47
2018-08-04T20:41:03.967Z,4.03
2018-08-04T20:43:32.892Z,3.70
2018-08-04T20:46:02.030Z,4.13
2018-08-04T20:48:30.815Z,5.23
2018-08-04T20:50:59.775Z,4.30
2018-08-04T20:53:28.831Z,4.50
2018-08-04T20:55:57.933Z,5.10
2018-08-04T20:58:27.213Z,8.77
2018-08-04T21:01:07.608Z,4.93
2018-08-04T21:03:36.655Z,6.87
2018-08-04T21:06:05.723Z,6.00
2018-08-04T21:08:34.776Z,3.43
2018-08-04T21:11:03.852Z,5.27
2018-08-04T21:13:32.904Z,3.33
2018-08-04T21:16:01.967Z,3.03
2018-08-04T21:18:31.026Z,4.40
2018-08-04T21:21:00.112Z,3.13
2018-08-04T21:23:29.183Z,2.67
2018-08-04T21:25:58.228Z,3.13
2018-08-04T21:28:27.300Z,2.80
2018-08-04T21:30:56.367Z,2.90
2018-08-04T21:33:26.563Z,2.50
2018-08-04T21:35:55.618Z,3.87
2018-08-04T21:38:24.688Z,2.90
2018-08-04T21:40:53.740Z,2.60
2018-08-04T21:43:22.807Z,2.47
2018-08-04T21:45:51.621Z,2.50
2018-08-04T21:48:20.558Z,2.50
2018-08-04T21:50:49.634Z,4.60
2018-08-04T21:53:18.703Z,2.83
2018-08-04T21:55:47.761Z,3.93
2018-08-04T21:58:16.835Z,4.43
2018-08-04T22:01:22.979Z,3.10
2018-08-04T22:03:52.211Z,2.10
2018-08-04T22:06:22.591Z,3.63
2018-08-04T22:09:03.226Z,3.27
2018-08-04T22:11:32.275Z,2.87
2018-08-04T22:14:01.349Z,2.60
2018-08-04T22:16:30.143Z,2.03
2018-08-04T22:18:59.088Z,2.30
2018-08-04T22:21:28.136Z,1.87
2018-08-04T22:23:57.206Z,2.00
2018-08-04T22:26:26.248Z,2.60
2018-08-04T22:28:55.307Z,2.00
2018-08-04T22:31:24.136Z,3.90
2018-08-04T22:33:53.071Z,2.80
2018-08-04T22:36:22.119Z,2.03
2018-08-04T22:38:51.183Z,2.37
2018-08-04T22:41:20.038Z,3.20
2018-08-04T22:43:48.691Z,3.50
2018-08-04T22:46:17.892Z,2.70
